createdAt,value
2022-10-17T00:00:26.024Z,17.67
2022-10-17T00:03:00.952Z,19.17
2022-10-17T00:05:37.321Z,15.60
2022-10-17T00:08:22.333Z,17.30
2022-10-17T00:11:14.068Z,13.85
2022-10-17T00:17:32.043Z,14.68
2022-10-17T00:20:10.750Z,18.17
2022-10-17T00:22:37.527Z,21.40
2022-10-17T00:27:46.702Z,16.42
2022-10-17T00:30:24.353Z,14.80
2022-10-17T00:33:13.836Z,16.75
2022-10-17T00:35:56.430Z,12.85
2022-10-17T00:38:28.756Z,17.05
2022-10-17T00:41:07.055Z,15.25
2022-10-17T00:44:08.230Z,19.30
2022-10-17T00:48:22.526Z,22.63
2022-10-17T00:50:26.541Z,15.02
2022-10-17T00:53:10.643Z,11.18
2022-10-17T00:55:52.655Z,14.85
2022-10-17T00:58:25.280Z,14.80
2022-10-17T01:01:07.804Z,14.57
2022-10-17T01:03:37.483Z,12.63
2022-10-17T01:06:10.004Z,16.38
2022-10-17T01:08:42.660Z,17.67
2022-10-17T01:11:30.994Z,14.70
2022-10-17T01:14:28.676Z,12.15
2022-10-17T01:17:22.450Z,14.97
2022-10-17T01:20:08.170Z,16.83
2022-10-17T01:22:47.625Z,11.95
2022-10-17T01:25:46.721Z,15.60
2022-10-17T01:28:54.862Z,14.52
2022-10-17T01:31:40.243Z,17.20
2022-10-17T01:34:22.632Z,13.90
2022-10-17T01:37:20.699Z,11.48
2022-10-17T01:40:07.743Z,12.43
2022-10-17T01:43:21.812Z,9.97
2022-10-17T01:46:33.975Z,13.02
2022-10-17T01:49:18.832Z,17.42
2022-10-17T01:52:17.111Z,13.43
2022-10-17T01:54:52.714Z,11.27
2022-10-17T02:00:40.282Z,13.77
2022-10-17T02:04:18.640Z,10.98
2022-10-17T02:06:50.526Z,14.30
2022-10-17T02:09:27.907Z,18.63
2022-10-17T02:19:03.391Z,10.63
2022-10-17T02:22:05.122Z,13.50
2022-10-17T02:24:55.268Z,12.73
2022-10-17T02:27:35.857Z,11.55
2022-10-17T02:30:32.566Z,14.32
2022-10-17T02:33:43.126Z,11.85
2022-10-17T02:36:38.298Z,10.23
2022-10-17T02:39:32.661Z,9.77
2022-10-17T02:42:16.344Z,10.85
2022-10-17T02:44:53.035Z,12.52
2022-10-17T02:47:45.176Z,17.38
2022-10-17T02:50:36.822Z,15.77
2022-10-17T02:53:14.010Z,11.77
2022-10-17T02:56:02.536Z,11.48
2022-10-17T02:59:00.434Z,11.57
2022-10-17T03:01:48.222Z,7.70
2022-10-17T03:04:33.653Z,10.60
2022-10-17T03:07:10.499Z,11.82
2022-10-17T03:10:05.216Z,7.15
2022-10-17T03:12:41.135Z,9.20
2022-10-17T03:19:21.641Z,11.95
2022-10-17T03:21:57.467Z,14.05
2022-10-17T03:24:24.401Z,9.52
2022-10-17T04:24:26.656Z,9.88
2022-10-17T04:33:36.973Z,12.20
2022-10-17T04:36:34.687Z,15.88
2022-10-17T04:39:10.772Z,9.00
2022-10-17T04:41:49.018Z,11.23
2022-10-17T04:44:18.956Z,12.68
2022-10-17T04:47:14.118Z,9.63
2022-10-17T04:52:34.382Z,10.90
2022-10-17T04:55:00.980Z,7.57
2022-10-17T04:57:39.705Z,8.77
2022-10-17T05:00:12.822Z,5.78
2022-10-17T05:02:41.813Z,7.20
2022-10-17T05:05:31.264Z,7.70
2022-10-17T05:14:59.280Z,9.20
2022-10-17T05:31:45.579Z,11.48
2022-10-17T05:34:35.048Z,6.13
2022-10-17T05:37:19.412Z,9.48
2022-10-17T05:41:13.285Z,8.07
2022-10-17T05:48:15.141Z,8.63
2022-10-17T05:51:20.064Z,12.38
2022-10-17T05:53:58.461Z,8.63
2022-10-17T06:04:38.076Z,8.35
2022-10-17T06:07:09.900Z,7.40
2022-10-17T07:15:28.161Z,8.77
2022-10-17T07:18:00.965Z,10.15
2022-10-17T07:20:35.637Z,7.75
2022-10-17T07:23:05.556Z,15.43
2022-10-17T07:25:40.147Z,11.27
2022-10-17T07:28:09.573Z,6.55
2022-10-17T07:30:36.178Z,6.30
2022-10-17T07:33:07.795Z,10.90
2022-10-17T07:35:41.865Z,8.13
2022-10-17T07:38:16.667Z,8.32
2022-10-17T07:40:43.806Z,12.18
2022-10-17T07:43:14.791Z,7.43
2022-10-17T07:45:41.808Z,6.13
2022-10-17T07:48:09.821Z,6.45
2022-10-17T07:50:39.809Z,11.13
2022-10-17T07:53:06.740Z,8.63
2022-10-17T07:55:45.088Z,6.32
2022-10-17T08:05:56.160Z,8.65
2022-10-17T08:09:11.408Z,8.55
2022-10-17T08:18:25.428Z,6.75
2022-10-17T08:21:00.317Z,10.77
2022-10-17T08:23:35.964Z,9.27
2022-10-17T08:26:33.013Z,10.30
2022-10-17T09:04:53.235Z,10.10
2022-10-17T09:07:32.826Z,6.57
2022-10-17T09:10:21.933Z,5.88
2022-10-17T09:17:54.700Z,8.85
2022-10-17T09:24:15.415Z,6.28
2022-10-17T09:26:47.473Z,9.70
2022-10-17T09:29:55.143Z,8.30
2022-10-17T09:32:34.921Z,10.70
2022-10-17T09:43:45.086Z,5.78
2022-10-17T09:46:33.091Z,3.97
2022-10-17T09:49:12.313Z,6.43
2022-10-17T09:51:48.292Z,8.75
2022-10-17T09:55:09.091Z,6.63
2022-10-17T09:58:04.753Z,5.72
2022-10-17T10:01:11.170Z,6.60
2022-10-17T10:03:37.821Z,10.98
2022-10-17T10:07:06.627Z,10.38
2022-10-17T10:09:51.732Z,4.60
2022-10-17T10:12:34.000Z,8.50
2022-10-17T10:15:34.259Z,7.53
2022-10-17T10:18:23.070Z,9.70
2022-10-17T10:21:13.121Z,9.25
2022-10-17T10:23:47.965Z,9.48
2022-10-17T10:26:29.657Z,8.10
2022-10-17T10:29:01.720Z,4.10
2022-10-17T10:31:39.873Z,9.90
2022-10-17T10:34:43.316Z,5.95
2022-10-17T10:37:20.375Z,4.53
2022-10-17T10:39:57.478Z,9.55
2022-10-17T10:42:39.476Z,7.03
2022-10-17T10:45:43.226Z,5.35
2022-10-17T10:48:39.381Z,8.30
2022-10-17T10:51:14.632Z,6.07
2022-10-17T10:53:52.771Z,7.22
2022-10-17T10:56:58.304Z,8.10
2022-10-17T10:59:45.966Z,7.15
2022-10-17T11:02:28.315Z,11.68
2022-10-17T11:05:22.570Z,6.60
2022-10-17T11:08:22.201Z,4.85
2022-10-17T11:11:01.148Z,9.65
2022-10-17T11:13:53.301Z,6.18
2022-10-17T11:16:49.598Z,4.35
2022-10-17T11:19:31.390Z,6.28
2022-10-17T11:22:28.174Z,6.80
2022-10-17T11:25:05.680Z,7.05
2022-10-17T11:27:37.522Z,4.37
2022-10-17T11:30:57.927Z,3.83
2022-10-17T11:33:58.960Z,5.78
2022-10-17T11:36:35.561Z,6.22
2022-10-17T11:39:18.318Z,10.18
2022-10-17T11:42:06.879Z,4.20
2022-10-17T11:44:40.427Z,7.88
2022-10-17T11:47:16.892Z,5.95
2022-10-17T11:53:56.513Z,9.70
2022-10-17T11:56:43.154Z,6.68
2022-10-17T11:59:31.267Z,5.97
2022-10-17T12:04:59.245Z,8.85
2022-10-17T12:07:48.626Z,6.05
2022-10-17T12:11:04.713Z,6.55
2022-10-17T12:14:04.963Z,5.63
2022-10-17T12:16:48.941Z,6.15
2022-10-17T12:19:26.580Z,5.43
2022-10-17T12:29:05.844Z,5.50
2022-10-17T12:31:45.836Z,6.10
2022-10-17T12:34:22.467Z,5.32
2022-10-17T12:36:55.332Z,4.72
2022-10-17T13:02:41.561Z,3.83
2022-10-17T13:05:18.933Z,6.43
2022-10-17T13:08:09.273Z,4.97
2022-10-17T13:10:43.067Z,8.52
2022-10-17T13:13:52.172Z,3.70
2022-10-17T13:19:26.924Z,4.75
2022-10-17T13:22:02.262Z,7.97
2022-10-17T13:25:08.760Z,9.00
2022-10-17T13:27:44.269Z,7.10
2022-10-17T13:31:23.089Z,7.75
2022-10-17T13:33:57.258Z,5.78
2022-10-17T13:36:26.625Z,3.20
2022-10-17T13:43:48.123Z,6.93
2022-10-17T13:46:39.797Z,4.18
2022-10-17T13:49:29.894Z,8.20
2022-10-17T13:52:44.906Z,7.15
2022-10-17T14:05:32.152Z,8.82
2022-10-17T14:50:17.396Z,6.93
2022-10-17T14:53:40.599Z,11.50
2022-10-17T15:19:09.009Z,10.30
2022-10-17T17:45:45.056Z,6.93
2022-10-17T17:48:31.886Z,9.77
2022-10-17T21:30:43.060Z,11.07
2022-10-17T21:33:25.625Z,11.68
2022-10-17T21:36:17.455Z,7.47
2022-10-17T21:49:28.011Z,11.02
2022-10-17T21:52:13.802Z,9.63
2022-10-17T21:54:40.454Z,8.77
2022-10-17T21:57:07.138Z,9.73
2022-10-17T22:02:04.440Z,16.00
2022-10-17T22:04:31.513Z,11.23
2022-10-17T22:06:58.370Z,9.10
2022-10-17T22:09:26.341Z,8.98
2022-10-17T22:11:55.712Z,10.68
2022-10-17T22:14:24.984Z,8.20
2022-10-17T22:19:41.794Z,7.85
2022-10-17T22:22:08.665Z,8.68
2022-10-17T22:24:36.356Z,11.18
2022-10-17T22:27:03.161Z,10.43
2022-10-17T22:32:01.729Z,6.75
2022-10-17T22:34:28.542Z,9.73
2022-10-17T22:39:21.624Z,8.68
2022-10-17T22:41:50.567Z,12.80
2022-10-17T22:44:57.290Z,9.77
2022-10-17T22:47:27.168Z,9.25
2022-10-17T22:49:54.169Z,11.82
2022-10-17T22:52:23.819Z,8.07
2022-10-17T22:54:50.620Z,11.30
2022-10-17T22:59:46.848Z,7.63
2022-10-17T23:02:13.383Z,8.02
2022-10-17T23:04:40.080Z,9.13
2022-10-17T23:09:41.724Z,6.82
2022-10-17T23:12:09.412Z,11.18
2022-10-17T23:14:40.629Z,6.70
2022-10-17T23:17:07.243Z,10.95
2022-10-17T23:19:34.279Z,14.45
2022-10-17T23:22:03.857Z,8.38
2022-10-17T23:24:30.493Z,10.77
2022-10-17T23:26:57.232Z,10.50
2022-10-17T23:31:58.718Z,8.23
2022-10-17T23:34:25.601Z,8.40
2022-10-17T23:37:03.235Z,7.93
2022-10-17T23:39:29.850Z,8.65
2022-10-17T23:41:56.589Z,10.45
2022-10-17T23:46:50.560Z,12.18
2022-10-17T23:51:43.585Z,8.80
2022-10-17T23:54:10.094Z,6.72
2022-10-17T23:56:36.683Z,7.90
2022-10-17T23:59:03.315Z,10.02
